FSIA/SEZ METAR and TAF weather

Enter ICAO airport designator
Station Type Date Time Source
FSIA METAR 2018/12/13 16:10 UTC NOAA

FSIA 131610Z 25014G25KT 220V290 9999 SCT024 28/23 Q1013 NOSIG


Station Type Date Time Source
FSIA Decoded METAR 2018/12/13 16:10 UTC NOAA

Seychelles Inter-National Airport, Seychelles (FSIA) 04-40S 055-31E 3M
Dec 13, 2018 - 11:10 AM EST / 2018.12.13 1610 UTC
Wind: from the WSW (250 degrees) at 16 MPH (14 KT) gusting to 29 MPH (25 KT) (direction variable):0
Visibility: greater than 7 mile(s):0
Sky conditions: partly cloudy
Temperature: 82 F (28 C)
Dew Point: 73 F (23 C)
Relative Humidity: 74%
Pressure (altimeter): 29.91 in. Hg (1013 hPa)
ob: FSIA 131610Z 25014G25KT 220V290 9999 SCT024 28/23 Q1013 NOSIG
cycle: 16

Station Type Date Time Source
FSIA TAF 2018/12/13 12:27 UTC NOAA

TAF TAF FSIA 131108Z 1312/1412 32010KT 5000 TSRA FEW010 FEW014CB BKN018
BECMG 1314/1316 FEW015CB BKN022
TEMPO 1320/1402 8000 SHRA FEW015CB BKN018


Example: see airport list